Time;durP1;ratioP1;P1;durP2;ratioP2;P2;SDS_P1;SDS_P2;PMS_P1;PMS_P2;Temp;Humidity;BMP_temperature;BMP_pressure;BME280_temperature;BME280_humidity;BME280_pressure;Samples;Min_cycle;Max_cycle;Signal;HPM_P1;HPM_P2
2022/04/27 00:02:24;;;;;;;15.93;8.75;;;;;;;3.21;100.00;95681.28;5072396;28;20064;-78
2022/04/27 00:04:50;;;;;;;17.77;8.93;;;;;;;3.24;100.00;95680.84;5071172;28;20029;-78
2022/04/27 00:07:15;;;;;;;16.55;8.40;;;;;;;3.33;100.00;95683.16;5071242;28;20049;-78
2022/04/27 00:09:40;;;;;;;16.20;8.38;;;;;;;3.21;100.00;95686.50;5065569;28;20106;-78
2022/04/27 00:12:07;;;;;;;19.35;8.75;;;;;;;3.14;100.00;95685.78;5072471;28;20047;-77
2022/04/27 00:14:33;;;;;;;14.40;8.38;;;;;;;3.10;100.00;95679.41;5068607;28;20036;-78
2022/04/27 00:16:59;;;;;;;17.58;8.85;;;;;;;3.08;100.00;95681.47;5071193;28;20094;-78
2022/04/27 00:19:25;;;;;;;19.35;9.63;;;;;;;3.16;100.00;95683.78;5071269;28;20036;-78
2022/04/27 00:21:51;;;;;;;16.70;9.43;;;;;;;3.12;100.00;95674.81;5079624;28;20048;-78
2022/04/27 00:24:18;;;;;;;17.67;9.45;;;;;;;3.11;100.00;95675.81;5063466;28;20070;-78
2022/04/27 00:26:44;;;;;;;16.10;9.38;;;;;;;3.06;100.00;95673.88;5067474;28;20483;-78
2022/04/27 00:29:10;;;;;;;18.58;9.40;;;;;;;2.98;100.00;95675.97;5067538;28;20054;-78
2022/04/27 00:31:36;;;;;;;17.23;9.02;;;;;;;2.90;100.00;95675.25;5084641;28;20471;-78
2022/04/27 00:34:02;;;;;;;17.02;9.20;;;;;;;2.95;100.00;95672.78;5065934;28;20052;-77
2022/04/27 00:36:30;;;;;;;17.23;8.70;;;;;;;2.93;100.00;95680.00;5067194;28;20095;-78
2022/04/27 00:38:55;;;;;;;18.95;9.13;;;;;;;3.00;100.00;95673.94;5065447;28;20111;-77
2022/04/27 00:41:21;;;;;;;16.83;8.45;;;;;;;3.04;100.00;95675.88;5071598;28;20250;-78
2022/04/27 00:43:48;;;;;;;15.48;7.55;;;;;;;3.05;100.00;95671.50;5081546;28;20040;-79
2022/04/27 00:46:13;;;;;;;16.45;8.32;;;;;;;2.97;100.00;95679.56;5082594;28;20522;-78
2022/04/27 00:48:40;;;;;;;14.43;8.00;;;;;;;2.83;100.00;95674.53;5052669;28;20041;-78
2022/04/27 00:51:07;;;;;;;13.38;8.00;;;;;;;2.85;100.00;95682.88;5069458;28;20049;-78
2022/04/27 00:53:33;;;;;;;14.63;7.57;;;;;;;2.76;100.00;95679.00;5067612;28;20101;-77
2022/04/27 00:56:01;;;;;;;16.30;8.10;;;;;;;2.81;100.00;95686.94;5063014;28;20045;-79
2022/04/27 00:58:27;;;;;;;17.75;8.38;;;;;;;2.72;100.00;95683.03;5063925;28;20072;-77
2022/04/27 01:00:54;;;;;;;15.63;7.85;;;;;;;2.60;100.00;95691.53;5080739;28;20441;-79
2022/04/27 01:03:20;;;;;;;17.35;8.77;;;;;;;2.56;100.00;95684.38;5073552;28;20052;-78
2022/04/27 01:05:48;;;;;;;14.32;7.85;;;;;;;2.56;100.00;95690.38;5078770;28;20474;-78
2022/04/27 01:08:19;;;;;;;14.85;8.45;;;;;;;2.52;100.00;95691.78;5066595;28;20607;-79
2022/04/27 01:10:46;;;;;;;14.85;7.97;;;;;;;2.48;100.00;95693.22;5074709;28;20048;-78
2022/04/27 01:13:15;;;;;;;18.92;8.43;;;;;;;2.51;100.00;95685.00;5076309;28;20036;-77
2022/04/27 01:15:41;;;;;;;19.88;9.18;;;;;;;2.52;100.00;95688.41;5085541;28;20764;-77
2022/04/27 01:18:09;;;;;;;17.58;8.48;;;;;;;2.49;100.00;95686.25;5061917;28;20048;-78
2022/04/27 01:20:44;;;;;;;15.82;8.85;;;;;;;2.48;100.00;95693.22;5074431;28;20486;-78
2022/04/27 01:23:14;;;;;;;19.80;9.10;;;;;;;2.53;100.00;95690.78;5074488;28;20032;-78
2022/04/27 01:25:52;;;;;;;22.63;9.20;;;;;;;2.65;100.00;95693.47;5066094;28;20033;-78
2022/04/27 01:28:24;;;;;;;16.10;8.52;;;;;;;2.72;100.00;95693.44;5065262;28;20047;-77
2022/04/27 01:31:02;;;;;;;15.52;8.77;;;;;;;2.73;100.00;95689.81;5082741;28;20071;-78
2022/04/27 01:33:29;;;;;;;16.98;8.80;;;;;;;2.74;100.00;95691.41;5077240;28;20562;-78
2022/04/27 01:35:55;;;;;;;16.13;8.13;;;;;;;2.76;100.00;95692.00;5080522;28;20040;-78
2022/04/27 01:38:21;;;;;;;17.23;9.45;;;;;;;2.82;100.00;95693.72;5073543;28;20047;-78
2022/04/27 01:40:47;;;;;;;18.27;9.45;;;;;;;2.90;100.00;95696.06;5070569;28;20040;-78
2022/04/27 01:43:16;;;;;;;17.58;8.55;;;;;;;2.95;100.00;95698.00;5087150;28;20040;-77
2022/04/27 01:45:43;;;;;;;16.70;8.07;;;;;;;3.02;100.00;95701.31;5071473;28;20033;-78
2022/04/27 01:48:11;;;;;;;18.50;8.65;;;;;;;3.02;100.00;95703.13;5053888;28;20049;-78
2022/04/27 01:50:36;;;;;;;17.05;9.20;;;;;;;3.04;100.00;95696.69;5062930;28;20044;-79
2022/04/27 01:55:47;;;;;;;16.83;9.15;;;;;;;3.13;100.00;95705.00;5065303;28;20043;-78
2022/04/27 01:58:13;;;;;;;18.92;9.45;;;;;;;3.20;100.00;95705.72;5065622;28;20079;-78
2022/04/27 02:00:38;;;;;;;21.73;10.50;;;;;;;3.24;100.00;95700.88;5063674;28;20120;-78
2022/04/27 02:03:05;;;;;;;19.35;10.10;;;;;;;3.33;100.00;95709.19;5068784;28;20111;-77
2022/04/27 02:05:30;;;;;;;20.63;10.13;;;;;;;3.37;100.00;95705.13;5066575;28;20033;-78
2022/04/27 02:07:56;;;;;;;18.83;9.48;;;;;;;3.45;100.00;95702.25;5072162;28;20048;-78
2022/04/27 02:10:22;;;;;;;18.92;10.18;;;;;;;3.55;100.00;95707.72;5071927;28;20041;-78
2022/04/27 02:12:47;;;;;;;19.25;9.32;;;;;;;3.68;100.00;95705.94;5073216;28;20045;-78
2022/04/27 02:15:13;;;;;;;18.95;9.98;;;;;;;3.67;100.00;95704.38;5067447;28;20033;-78
2022/04/27 02:17:39;;;;;;;23.52;11.23;;;;;;;3.74;100.00;95710.28;5054406;28;20120;-77
2022/04/27 02:20:05;;;;;;;26.48;11.30;;;;;;;3.84;100.00;95710.53;5054130;28;20517;-77
2022/04/27 02:22:34;;;;;;;26.85;11.60;;;;;;;3.96;100.00;95703.53;5070528;28;20068;-78
2022/04/27 02:25:04;;;;;;;25.27;11.50;;;;;;;4.02;100.00;95703.69;5056946;28;20040;-78
2022/04/27 02:27:29;;;;;;;22.80;11.90;;;;;;;4.10;100.00;95703.38;5066030;28;20045;-79
2022/04/27 02:29:55;;;;;;;20.08;10.70;;;;;;;4.19;100.00;95712.44;5059200;28;20040;-78
2022/04/27 02:32:21;;;;;;;25.55;11.20;;;;;;;4.18;100.00;95705.66;5072232;28;20506;-79
2022/04/27 02:34:46;;;;;;;28.02;11.23;;;;;;;4.20;100.00;95706.22;5071088;28;20032;-78
2022/04/27 02:37:12;;;;;;;21.35;11.25;;;;;;;4.28;100.00;95705.91;5069453;28;20037;-77
2022/04/27 02:39:38;;;;;;;21.70;10.70;;;;;;;4.37;100.00;95708.16;5070002;28;20495;-77
2022/04/27 02:42:05;;;;;;;24.98;11.35;;;;;;;4.33;100.00;95719.03;5072796;28;20513;-77
2022/04/27 02:44:30;;;;;;;23.25;11.20;;;;;;;4.40;100.00;95710.34;5066682;28;20041;-77
2022/04/27 02:46:56;;;;;;;23.00;11.02;;;;;;;4.37;100.00;95719.41;5073334;28;20052;-78
2022/04/27 02:52:06;;;;;;;21.70;11.50;;;;;;;4.54;100.00;95718.72;5067253;28;20036;-78
2022/04/27 02:54:32;;;;;;;22.80;11.90;;;;;;;4.56;100.00;95720.09;5063947;28;20052;-78
2022/04/27 02:56:57;;;;;;;24.98;11.98;;;;;;;4.59;100.00;95722.22;5059075;28;20037;-78
2022/04/27 02:59:23;;;;;;;23.15;12.10;;;;;;;4.61;100.00;95722.81;5073468;28;20045;-78
2022/04/27 03:01:48;;;;;;;24.30;11.88;;;;;;;4.53;100.00;95725.75;5081934;28;20041;-78
2022/04/27 03:04:14;;;;;;;27.42;12.55;;;;;;;4.63;100.00;95733.81;5069605;28;20067;-78
2022/04/27 03:06:40;;;;;;;25.35;12.90;;;;;;;4.73;100.00;95732.47;5058738;28;20041;-78
2022/04/27 03:09:06;;;;;;;28.45;12.43;;;;;;;4.76;100.00;95747.66;5054841;28;20044;-77
2022/04/27 03:11:31;;;;;;;27.48;12.57;;;;;;;4.77;100.00;95744.00;5072245;28;20048;-78
2022/04/27 03:13:57;;;;;;;24.58;11.70;;;;;;;4.80;100.00;95743.56;5070697;28;20190;-78
2022/04/27 03:16:22;;;;;;;22.95;11.60;;;;;;;4.79;100.00;95736.75;5076650;28;20047;-78
2022/04/27 03:18:48;;;;;;;25.75;12.10;;;;;;;4.80;100.00;95751.41;5082460;28;20078;-77
2022/04/27 03:21:13;;;;;;;23.60;11.88;;;;;;;4.95;100.00;95746.50;5073677;28;20573;-77
2022/04/27 03:23:39;;;;;;;22.88;11.80;;;;;;;4.94;100.00;95754.56;5057383;28;20049;-77
2022/04/27 03:26:05;;;;;;;28.50;12.05;;;;;;;4.91;100.00;95750.56;5055073;28;20063;-78
2022/04/27 03:28:30;;;;;;;24.17;11.57;;;;;;;4.87;100.00;95749.47;5072830;28;20044;-78
2022/04/27 03:30:56;;;;;;;24.67;11.95;;;;;;;4.88;100.00;95750.25;5078171;28;20052;-78
2022/04/27 03:33:21;;;;;;;22.80;12.02;;;;;;;4.80;100.00;95743.56;5088454;28;20047;-78
2022/04/27 03:35:47;;;;;;;23.63;12.07;;;;;;;4.86;100.00;95747.88;5069282;28;20107;-78
2022/04/27 03:38:15;;;;;;;27.65;12.68;;;;;;;4.84;100.00;95742.06;5054593;28;20044;-77
2022/04/27 03:40:41;;;;;;;27.75;13.35;;;;;;;4.83;100.00;95753.56;5055223;28;20514;-78
2022/04/27 03:43:08;;;;;;;30.85;14.02;;;;;;;4.82;100.00;95751.94;5075117;28;20438;-77
2022/04/27 03:45:34;;;;;;;24.10;12.52;;;;;;;4.91;100.00;95763.63;5073995;28;20036;-78
2022/04/27 03:48:00;;;;;;;29.00;12.77;;;;;;;4.90;100.00;95756.84;5053153;28;20126;-79
2022/04/27 03:50:25;;;;;;;28.40;13.65;;;;;;;4.90;100.00;95762.06;5060698;28;20035;-78
2022/04/27 03:52:51;;;;;;;27.92;12.98;;;;;;;4.87;100.00;95759.91;5076381;28;20040;-77
2022/04/27 03:55:17;;;;;;;27.80;13.30;;;;;;;4.93;100.00;95759.00;5068197;28;20036;-78
2022/04/27 03:57:42;;;;;;;27.08;13.05;;;;;;;5.02;100.00;95762.81;5081237;28;20041;-77
2022/04/27 04:00:09;;;;;;;30.10;13.43;;;;;;;5.08;100.00;95770.78;5066697;28;20043;-78
2022/04/27 04:02:36;;;;;;;32.20;13.30;;;;;;;4.97;100.00;95775.78;5080448;28;20051;-78
2022/04/27 04:05:03;;;;;;;26.58;13.77;;;;;;;4.93;100.00;95769.41;5060017;28;20049;-78
2022/04/27 04:07:28;;;;;;;29.63;14.35;;;;;;;4.96;100.00;95778.59;5052272;28;20076;-78
2022/04/27 04:09:53;;;;;;;33.25;14.40;;;;;;;4.98;100.00;95782.56;5062215;28;20075;-77
2022/04/27 04:12:19;;;;;;;27.88;13.75;;;;;;;5.02;100.00;95788.91;5067395;28;20049;-78
2022/04/27 04:14:45;;;;;;;29.83;13.60;;;;;;;5.02;100.00;95790.75;5065127;28;20033;-78
2022/04/27 04:17:10;;;;;;;30.58;15.05;;;;;;;4.94;100.00;95797.09;5085182;28;20064;-79
2022/04/27 04:19:36;;;;;;;38.72;14.90;;;;;;;4.91;100.00;95797.53;5052254;28;20048;-78
2022/04/27 04:22:01;;;;;;;32.13;15.43;;;;;;;4.93;100.00;95795.50;5070024;28;20051;-78
2022/04/27 04:24:27;;;;;;;33.88;15.25;;;;;;;4.93;100.00;95794.69;5070713;28;20044;-77
2022/04/27 04:29:37;;;;;;;34.15;14.77;;;;;;;4.94;100.00;95807.53;5060273;28;20037;-77
2022/04/27 04:32:03;;;;;;;29.52;13.98;;;;;;;5.03;100.00;95806.16;5074474;28;20048;-78
2022/04/27 04:34:29;;;;;;;33.90;14.43;;;;;;;4.93;100.00;95811.16;5053881;28;20383;-78
2022/04/27 04:36:54;;;;;;;36.58;15.98;;;;;;;4.96;100.00;95810.69;5064552;28;20056;-78
2022/04/27 04:39:20;;;;;;;33.10;15.55;;;;;;;5.00;100.00;95824.09;5056411;28;20674;-78
2022/04/27 04:41:46;;;;;;;33.22;15.30;;;;;;;4.98;100.00;95824.28;5065217;28;20040;-79
2022/04/27 04:44:12;;;;;;;33.85;16.38;;;;;;;5.01;100.00;95831.69;5068949;28;20040;-78
2022/04/27 04:46:38;;;;;;;34.70;15.65;;;;;;;5.00;100.00;95824.09;5077450;28;20036;-78
2022/04/27 04:49:04;;;;;;;31.90;15.10;;;;;;;5.03;100.00;95829.63;5060054;28;20044;-77
2022/04/27 04:51:29;;;;;;;29.83;13.98;;;;;;;5.07;100.00;95826.56;5067734;28;20067;-77
2022/04/27 04:53:55;;;;;;;32.35;15.80;;;;;;;5.21;100.00;95840.97;5071004;28;20452;-77
2022/04/27 04:56:21;;;;;;;31.58;14.45;;;;;;;5.16;100.00;95841.66;5068307;28;20521;-77
2022/04/27 04:58:46;;;;;;;34.78;15.52;;;;;;;5.19;100.00;95846.44;5057943;28;20513;-78
2022/04/27 05:01:15;;;;;;;35.83;15.85;;;;;;;5.16;100.00;95840.88;5062273;28;20048;-77
2022/04/27 05:03:40;;;;;;;36.10;15.70;;;;;;;5.19;100.00;95835.22;5068367;28;20037;-77
2022/04/27 05:06:06;;;;;;;34.33;14.73;;;;;;;5.22;100.00;95849.63;5068777;28;20042;-77
2022/04/27 05:08:32;;;;;;;32.80;14.80;;;;;;;5.22;100.00;95852.22;5077810;28;20041;-77
2022/04/27 05:10:57;;;;;;;34.92;14.95;;;;;;;5.29;100.00;95840.66;5068035;28;20040;-77
2022/04/27 05:13:23;;;;;;;30.60;13.50;;;;;;;5.30;100.00;95847.47;5080515;28;20048;-77
2022/04/27 05:15:49;;;;;;;32.35;14.38;;;;;;;5.35;100.00;95844.94;5081977;28;20049;-77
2022/04/27 05:18:17;;;;;;;31.67;15.15;;;;;;;5.31;100.00;95854.25;5070009;28;20040;-77
2022/04/27 05:20:43;;;;;;;36.03;15.05;;;;;;;5.41;100.00;95852.91;5071340;28;20071;-77
2022/04/27 05:23:11;;;;;;;27.85;13.50;;;;;;;5.50;100.00;95851.53;5070699;28;20041;-78
2022/04/27 05:25:37;;;;;;;29.00;13.88;;;;;;;5.47;100.00;95862.44;5079864;28;20040;-79
2022/04/27 05:28:04;;;;;;;32.72;14.55;;;;;;;5.46;100.00;95866.06;5067126;28;20455;-76
2022/04/27 05:33:33;;;;;;;32.05;14.93;;;;;;;5.54;100.00;95869.09;5045013;28;20457;-76
2022/04/27 05:35:59;;;;;;;33.03;15.07;;;;;;;5.59;100.00;95875.47;5052365;28;20045;-77
2022/04/27 05:38:25;;;;;;;35.25;14.73;;;;;;;5.53;100.00;95866.72;5081991;28;20064;-77
2022/04/27 05:40:50;;;;;;;40.72;15.85;;;;;;;5.57;100.00;95873.09;5071130;28;20036;-76
2022/04/27 05:43:16;;;;;;;32.65;14.30;;;;;;;5.58;100.00;95879.91;5055384;28;20044;-76
2022/04/27 05:45:42;;;;;;;37.90;16.23;;;;;;;5.59;100.00;95880.69;5067150;28;20442;-76
2022/04/27 05:48:07;;;;;;;32.38;15.15;;;;;;;5.67;100.00;95878.53;5071101;28;20036;-76
2022/04/27 05:50:35;;;;;;;32.17;14.50;;;;;;;5.57;100.00;95888.75;5071855;28;20410;-76
2022/04/27 05:53:03;;;;;;;35.30;15.05;;;;;;;5.69;100.00;95888.78;5066080;28;20048;-76
2022/04/27 05:55:28;;;;;;;37.42;15.05;;;;;;;5.62;100.00;95896.72;5052281;28;20073;-76
2022/04/27 05:57:54;;;;;;;33.80;16.38;;;;;;;5.72;100.00;95896.13;5079677;28;20051;-76
2022/04/27 06:00:19;;;;;;;35.53;16.75;;;;;;;5.83;100.00;95902.34;5071669;28;20045;-76
2022/04/27 06:02:46;;;;;;;33.95;15.50;;;;;;;6.01;100.00;95899.63;5070810;28;20041;-76
2022/04/27 06:05:12;;;;;;;34.92;15.75;;;;;;;6.15;100.00;95905.41;5068504;28;20052;-76
2022/04/27 06:07:38;;;;;;;33.40;16.13;;;;;;;6.13;100.00;95909.28;5098505;28;20039;-78
2022/04/27 06:10:08;;;;;;;32.95;16.10;;;;;;;6.20;100.00;95912.56;5076110;28;20032;-77
2022/04/27 06:12:37;;;;;;;40.90;17.80;;;;;;;6.27;100.00;95918.44;5080426;28;20150;-77
2022/04/27 06:15:03;;;;;;;43.13;16.42;;;;;;;6.23;100.00;95922.53;5070820;28;20060;-77
2022/04/27 06:17:31;;;;;;;40.22;16.52;;;;;;;6.27;100.00;95913.22;5078623;28;20047;-76
2022/04/27 06:19:57;;;;;;;36.42;16.70;;;;;;;6.20;100.00;95917.78;5074541;28;20048;-76
2022/04/27 06:22:23;;;;;;;38.60;16.70;;;;;;;6.06;100.00;95915.44;5073204;28;20064;-76
2022/04/27 06:24:48;;;;;;;32.53;15.52;;;;;;;6.32;100.00;95925.59;5064542;28;20111;-75
2022/04/27 06:27:14;;;;;;;31.63;15.57;;;;;;;6.21;100.00;95929.81;5071518;28;20045;-76
2022/04/27 06:29:40;;;;;;;28.60;14.45;;;;;;;6.06;100.00;95933.72;5056445;28;20490;-77
2022/04/27 06:32:05;;;;;;;34.00;15.43;;;;;;;6.19;100.00;95927.44;5070891;28;20071;-77
2022/04/27 06:34:31;;;;;;;36.40;15.73;;;;;;;6.24;100.00;95924.91;5069287;28;20097;-75
2022/04/27 06:36:57;;;;;;;31.52;15.27;;;;;;;6.19;100.00;95927.44;5080372;28;20040;-75
2022/04/27 06:39:22;;;;;;;35.70;16.65;;;;;;;6.15;100.00;95933.34;5072845;28;20044;-75
2022/04/27 06:41:48;;;;;;;33.35;17.35;;;;;;;6.17;100.00;95933.91;5072701;28;20044;-75
2022/04/27 06:44:14;;;;;;;39.28;16.63;;;;;;;6.23;100.00;95948.69;5071769;28;20040;-75
2022/04/27 06:46:39;;;;;;;34.58;16.30;;;;;;;6.15;100.00;95941.19;5073409;28;20047;-75
2022/04/27 06:49:05;;;;;;;35.03;17.23;;;;;;;6.21;100.00;95945.50;5070200;28;20036;-76
2022/04/27 06:51:31;;;;;;;34.90;16.45;;;;;;;6.48;100.00;95937.13;5071202;28;20041;-76
2022/04/27 06:53:56;;;;;;;35.90;16.73;;;;;;;6.45;100.00;95940.22;5083265;28;20500;-75
2022/04/27 06:56:22;;;;;;;33.75;16.45;;;;;;;6.54;100.00;95938.84;5071282;28;20505;-78
2022/04/27 06:58:48;;;;;;;29.92;15.45;;;;;;;6.63;100.00;95942.66;5068978;28;20036;-77
2022/04/27 07:01:17;;;;;;;31.20;15.18;;;;;;;6.91;100.00;95939.25;5073722;28;20491;-77
2022/04/27 07:03:43;;;;;;;30.75;14.88;;;;;;;6.91;100.00;95943.66;5068583;28;20037;-77
2022/04/27 07:06:10;;;;;;;34.22;15.48;;;;;;;7.08;100.00;95934.03;5075078;28;20038;-77
2022/04/27 07:08:35;;;;;;;32.08;15.07;;;;;;;6.89;100.00;95941.28;5065671;28;20494;-78
2022/04/27 07:11:01;;;;;;;32.13;15.40;;;;;;;7.11;100.00;95933.56;5065783;28;20049;-77
2022/04/27 07:13:28;;;;;;;34.13;15.73;;;;;;;7.07;100.00;95932.44;5073851;28;20048;-76
2022/04/27 07:15:59;;;;;;;27.48;14.73;;;;;;;6.90;100.00;95942.09;5059819;28;20049;-76
2022/04/27 07:18:25;;;;;;;28.00;14.82;;;;;;;7.01;100.00;95943.88;5072596;28;20045;-75
2022/04/27 07:20:50;;;;;;;30.38;14.20;;;;;;;7.20;100.00;95941.03;5074381;28;20500;-75
2022/04/27 07:23:16;;;;;;;25.50;12.88;;;;;;;7.35;97.98;95949.13;5064300;28;20097;-75
2022/04/27 07:25:41;;;;;;;25.13;12.52;;;;;;;7.38;99.49;95953.88;5071292;28;20051;-74
2022/04/27 07:28:07;;;;;;;20.52;11.05;;;;;;;7.51;94.22;95946.75;5066212;28;20055;-74
2022/04/27 07:30:32;;;;;;;23.38;12.43;;;;;;;7.24;95.39;95952.59;5070528;28;20067;-78
2022/04/27 07:32:58;;;;;;;26.58;12.65;;;;;;;7.62;97.01;95953.72;5070096;28;20036;-75
2022/04/27 07:35:23;;;;;;;26.80;12.98;;;;;;;7.63;98.64;95957.94;5065173;28;20046;-74
2022/04/27 07:37:49;;;;;;;24.13;12.75;;;;;;;7.60;93.93;95955.78;5072476;28;20115;-76
2022/04/27 07:40:14;;;;;;;25.50;12.88;;;;;;;7.35;95.57;95959.59;5072918;28;20482;-75
2022/04/27 07:42:40;;;;;;;27.33;12.82;;;;;;;7.31;98.97;95963.72;5065715;28;20037;-75
2022/04/27 07:45:07;;;;;;;21.20;11.25;;;;;;;7.44;96.20;95973.91;5055044;28;21701;-74
2022/04/27 07:47:39;;;;;;;26.70;11.75;;;;;;;7.50;95.48;95971.34;5073069;28;20504;-75
2022/04/27 07:50:06;;;;;;;25.02;12.25;;;;;;;7.59;94.94;95969.94;5069516;28;20044;-74
2022/04/27 07:52:32;;;;;;;19.30;10.50;;;;;;;7.57;95.39;95978.03;5079367;28;20416;-77
2022/04/27 07:54:57;;;;;;;20.65;10.52;;;;;;;7.80;91.91;95974.44;5068421;28;20041;-74
2022/04/27 07:57:23;;;;;;;19.20;10.00;;;;;;;7.71;94.77;95973.25;5070744;28;20037;-74
2022/04/27 07:59:48;;;;;;;19.50;10.63;;;;;;;7.82;95.38;95978.66;5059617;28;20043;-75
2022/04/27 08:02:14;;;;;;;19.23;11.10;;;;;;;7.93;92.35;95986.41;5075662;28;20640;-75
2022/04/27 08:04:40;;;;;;;21.00;10.98;;;;;;;7.93;91.37;95980.38;5067520;28;20498;-75
2022/04/27 08:07:05;;;;;;;21.55;10.50;;;;;;;7.90;94.50;95983.47;5059933;28;20079;-75
2022/04/27 08:09:31;;;;;;;20.88;9.95;;;;;;;7.90;92.72;95981.66;5071216;28;20040;-75
2022/04/27 08:11:56;;;;;;;18.60;10.15;;;;;;;7.86;92.18;95984.97;5088580;28;20060;-75
2022/04/27 08:14:21;;;;;;;19.08;10.38;;;;;;;7.93;96.01;95986.41;5065528;28;20041;-75
2022/04/27 08:16:47;;;;;;;18.33;10.00;;;;;;;8.08;94.33;95991.06;5072165;28;20036;-76
2022/04/27 08:19:14;;;;;;;19.55;10.38;;;;;;;8.22;92.90;95988.13;5052037;28;20044;-76
2022/04/27 08:21:39;;;;;;;19.02;9.77;;;;;;;8.25;92.61;95982.38;5067852;28;20450;-76
2022/04/27 08:24:10;;;;;;;20.27;10.98;;;;;;;8.18;93.31;95984.41;5066022;28;20040;-75
2022/04/27 08:26:35;;;;;;;21.85;11.02;;;;;;;7.98;91.26;95983.06;5060873;28;20129;-75
2022/04/27 08:29:01;;;;;;;20.83;10.15;;;;;;;8.12;91.76;95994.03;5082538;28;20120;-73
2022/04/27 08:31:26;;;;;;;18.75;9.75;;;;;;;8.21;92.51;95987.31;5067166;28;20044;-75
2022/04/27 08:33:52;;;;;;;17.58;9.70;;;;;;;8.30;90.81;95991.13;5068454;28;20067;-75
2022/04/27 08:36:17;;;;;;;19.92;10.55;;;;;;;8.42;88.24;95991.00;5063400;28;20092;-74
2022/04/27 08:38:43;;;;;;;20.48;10.93;;;;;;;8.53;88.99;95993.78;5054633;28;20041;-74
2022/04/27 08:41:09;;;;;;;17.23;9.75;;;;;;;8.41;87.85;95991.25;5065205;28;20457;-75
2022/04/27 08:43:34;;;;;;;16.42;9.13;;;;;;;8.24;86.03;95996.53;5063918;28;20091;-75
2022/04/27 08:46:03;;;;;;;14.45;8.18;;;;;;;8.27;82.28;96001.28;5066172;28;20048;-74
2022/04/27 08:48:30;;;;;;;13.52;7.82;;;;;;;8.33;87.17;96008.19;5073272;28;20401;-74
2022/04/27 08:50:56;;;;;;;12.60;7.65;;;;;;;8.35;81.95;96003.50;5068767;28;20063;-74
2022/04/27 08:53:22;;;;;;;14.65;7.57;;;;;;;8.43;82.80;95997.84;5057408;28;20678;-74
2022/04/27 08:55:47;;;;;;;16.45;8.18;;;;;;;8.84;nan;96000.94;5064356;28;20045;-74
2022/04/27 08:58:17;;;;;;;15.30;8.02;;;;;;;9.41;78.07;96003.34;5066783;28;20501;-73
2022/04/27 09:00:44;;;;;;;13.35;7.13;;;;;;;9.52;81.10;96000.56;5068384;28;20048;-74
2022/04/27 09:03:33;;;;;;;17.05;8.82;;;;;;;9.38;82.43;96004.66;5067138;28;20049;-74
2022/04/27 09:06:07;;;;;;;16.02;7.50;;;;;;;9.25;83.27;96005.03;5074810;28;20043;-74
2022/04/27 09:08:46;;;;;;;14.52;7.40;;;;;;;9.12;78.68;96011.47;5076313;28;20041;-74
2022/04/27 09:11:12;;;;;;;11.00;6.45;;;;;;;8.98;80.22;96011.09;5068683;28;20574;-74
2022/04/27 09:13:38;;;;;;;14.32;6.68;;;;;;;9.10;82.72;96014.34;5062885;28;20041;-74
2022/04/27 09:16:05;;;;;;;14.77;8.15;;;;;;;9.20;79.05;96008.41;5064706;28;20033;-74
2022/04/27 09:21:53;;;;;;;12.13;5.88;;;;;;;9.49;73.54;96019.44;5071346;28;20067;-74
2022/04/27 09:24:19;;;;;;;11.35;6.38;;;;;;;9.36;76.78;96017.22;5058286;28;20090;-74
2022/04/27 09:26:45;;;;;;;13.23;6.60;;;;;;;9.37;77.36;96021.47;5055045;28;20048;-74
2022/04/27 09:29:26;;;;;;;14.43;7.88;;;;;;;9.47;79.93;96024.16;5072186;28;20555;-74
2022/04/27 09:31:56;;;;;;;16.15;8.40;;;;;;;9.62;79.60;96014.84;5071595;28;20043;-74
2022/04/27 09:34:29;;;;;;;16.33;9.50;;;;;;;9.57;81.91;96017.41;5064610;28;20111;-74
2022/04/27 09:36:59;;;;;;;16.30;9.07;;;;;;;9.69;84.98;96020.66;5073990;28;20093;-74
2022/04/27 09:39:25;;;;;;;14.50;8.60;;;;;;;9.63;76.75;96016.44;5064396;28;20037;-74
2022/04/27 09:41:51;;;;;;;19.33;8.82;;;;;;;9.74;78.32;96015.47;5071210;28;20040;-74
2022/04/27 09:44:28;;;;;;;18.75;7.88;;;;;;;10.11;77.94;96022.53;5071991;28;20033;-74
2022/04/27 09:46:54;;;;;;;16.58;8.77;;;;;;;10.09;78.02;96015.97;5071677;28;20041;-74
2022/04/27 09:49:20;;;;;;;14.48;8.27;;;;;;;10.15;76.24;96018.38;5074939;28;20036;-75
2022/04/27 09:51:52;;;;;;;17.30;8.70;;;;;;;10.27;78.86;96009.50;5068094;28;20172;-77
2022/04/27 09:54:19;;;;;;;19.20;8.18;;;;;;;10.26;75.29;96015.78;5066669;28;20032;-75
2022/04/27 09:57:04;;;;;;;13.32;7.20;;;;;;;10.19;73.85;96014.19;5068176;28;20044;-75
2022/04/27 09:59:32;;;;;;;14.05;7.28;;;;;;;10.63;72.67;96022.84;5083336;28;20418;-75
2022/04/27 10:02:05;;;;;;;12.02;6.75;;;;;;;10.98;73.96;96024.84;5061061;28;20044;-75
2022/04/27 10:04:31;;;;;;;14.65;7.63;;;;;;;11.08;74.57;96013.56;5058200;28;20047;-75
2022/04/27 10:06:58;;;;;;;16.60;9.00;;;;;;;10.79;71.27;96019.25;5081235;28;20045;-74
2022/04/27 10:09:28;;;;;;;17.90;9.27;;;;;;;10.85;74.43;96020.84;5087489;28;20037;-74
2022/04/27 10:11:55;;;;;;;19.67;9.40;;;;;;;10.77;75.56;96023.97;5077187;28;20048;-75
2022/04/27 10:14:22;;;;;;;18.95;10.30;;;;;;;10.83;74.26;96038.75;5074188;28;20033;-75
2022/04/27 10:16:48;;;;;;;17.60;9.35;;;;;;;10.84;73.88;96035.06;5071456;28;20406;-75
2022/04/27 10:19:16;;;;;;;19.27;9.80;;;;;;;10.70;74.28;96033.94;5078800;28;20040;-74
2022/04/27 10:21:56;;;;;;;17.38;9.77;;;;;;;10.73;73.46;96038.69;5078237;28;20051;-76
2022/04/27 10:24:34;;;;;;;19.15;9.70;;;;;;;10.75;73.55;96032.13;5076878;28;20051;-74
2022/04/27 10:27:33;;;;;;;21.02;9.93;;;;;;;10.22;79.25;96033.94;5065161;28;20041;-77
2022/04/27 10:30:04;;;;;;;18.75;9.88;;;;;;;10.38;76.78;96038.25;5073943;28;20045;-76
2022/04/27 10:32:41;;;;;;;19.67;11.10;;;;;;;10.44;76.58;96036.44;5076037;28;20068;-74
2022/04/27 10:35:12;;;;;;;17.38;10.30;;;;;;;10.62;77.13;96042.34;5077390;28;20044;-75
2022/04/27 10:37:54;;;;;;;21.70;10.80;;;;;;;10.65;77.34;96041.84;5058181;28;20037;-74
2022/04/27 10:40:29;;;;;;;19.05;10.38;;;;;;;10.19;76.15;96035.22;5076828;28;20044;-75
2022/04/27 10:43:25;;;;;;;17.27;9.82;;;;;;;10.32;76.50;96033.22;5074204;28;20040;-75
2022/04/27 10:45:50;;;;;;;19.45;9.93;;;;;;;10.50;77.34;96030.19;5061193;28;20060;-76
2022/04/27 10:48:20;;;;;;;15.95;9.05;;;;;;;10.42;75.46;96033.28;5076131;28;20098;-76
2022/04/27 10:51:07;;;;;;;16.52;9.20;;;;;;;10.27;76.15;96036.59;5083632;28;20067;-76
2022/04/27 10:53:41;;;;;;;21.73;10.07;;;;;;;10.43;77.02;96037.50;5069842;28;20040;-75
2022/04/27 10:56:26;;;;;;;21.65;9.75;;;;;;;10.42;77.40;96048.28;5064819;28;20418;-76
2022/04/27 10:58:52;;;;;;;23.65;10.82;;;;;;;10.43;76.24;96050.66;5064804;28;20056;-76
2022/04/27 11:01:25;;;;;;;22.38;10.23;;;;;;;10.31;78.12;96048.19;5070507;28;20044;-76
2022/04/27 11:03:54;;;;;;;22.17;11.80;;;;;;;10.28;77.94;96042.66;5071052;28;20048;-76
2022/04/27 11:06:21;;;;;;;20.17;11.07;;;;;;;10.07;76.34;96039.91;5067064;28;20045;-76
2022/04/27 11:09:22;;;;;;;23.45;10.90;;;;;;;10.22;79.13;96061.03;5070960;28;20563;-75
2022/04/27 11:11:56;;;;;;;18.20;9.57;;;;;;;10.43;77.49;96055.94;5071363;28;20094;-75
2022/04/27 11:14:29;;;;;;;18.23;9.65;;;;;;;10.19;75.28;96064.16;5054914;28;20099;-75
2022/04/27 11:16:55;;;;;;;19.05;10.55;;;;;;;10.22;78.84;96054.97;5049783;28;20091;-76
2022/04/27 11:19:21;;;;;;;19.85;10.68;;;;;;;10.20;77.82;96063.13;5049966;28;20041;-75
2022/04/27 11:21:48;;;;;;;22.23;10.07;;;;;;;10.32;76.40;96064.78;5050826;28;20037;-77
2022/04/27 11:24:15;;;;;;;20.52;9.75;;;;;;;10.48;77.97;96066.47;5050993;28;20091;-75
2022/04/27 11:26:44;;;;;;;16.65;8.30;;;;;;;10.55;75.80;96067.03;5060431;28;20044;-76
2022/04/27 11:29:12;;;;;;;16.00;8.50;;;;;;;10.71;73.87;96069.75;5051279;28;20446;-76
2022/04/27 11:31:38;;;;;;;17.30;9.48;;;;;;;10.60;73.46;96070.75;5050824;28;20072;-75
2022/04/27 11:34:26;;;;;;;16.20;8.95;;;;;;;10.51;71.19;96071.22;5074747;28;20430;-74
2022/04/27 11:36:54;;;;;;;18.00;8.68;;;;;;;10.44;75.19;96078.53;5072103;28;20724;-75
2022/04/27 11:39:26;;;;;;;16.58;9.52;;;;;;;10.61;75.15;96080.22;5074256;28;20048;-75